Time;durP1;ratioP1;P1;durP2;ratioP2;P2;SDS_P1;SDS_P2;PMS_P1;PMS_P2;Temp;Humidity;BMP_temperature;BMP_pressure;BME280_temperature;BME280_humidity;BME280_pressure;Samples;Min_cycle;Max_cycle;Signal;HPM_P1;HPM_P2
2022/05/01 00:01:08;;;;;;;;;;;;;;;;;;5075227;28;28517;-81
2022/05/01 00:03:35;;;;;;;;;;;;;;;;;;5075100;28;28884;-81
2022/05/01 00:06:00;;;;;;;;;;;;;;;;;;5075228;28;28492;-81
2022/05/01 00:08:25;;;;;;;;;;;;;;;;;;5075553;28;28395;-80
2022/05/01 00:10:50;;;;;;;;;;;;;;;;;;5072353;28;29686;-80
2022/05/01 00:13:16;;;;;;;;;;;;;;;;;;5072165;28;28423;-80
2022/05/01 00:15:42;;;;;;;;;;;;;;;;;;5074818;28;28581;-80
2022/05/01 00:18:07;;;;;;;;;;;;;;;;;;5075270;28;28407;-81
2022/05/01 00:20:32;;;;;;;;;;;;;;;;;;5074867;28;28359;-81
2022/05/01 00:22:58;;;;;;;;;;;;;;;;;;5075088;28;28395;-81
2022/05/01 00:25:23;;;;;;;;;;;;;;;;;;5075147;28;28269;-81
2022/05/01 00:27:48;;;;;;;;;;;;;;;;;;5075115;28;28459;-81
2022/05/01 00:30:13;;;;;;;;;;;;;;;;;;5074411;28;29161;-81
2022/05/01 00:38:06;;;;;;;;;;;;;;;;;;5075459;28;28320;-81
2022/05/01 00:40:31;;;;;;;;;;;;;;;;;;5075180;28;29862;-81
2022/05/01 00:42:57;;;;;;;;;;;;;;;;;;5074750;28;28514;-81
2022/05/01 00:45:22;;;;;;;;;;;;;;;;;;5075133;28;28371;-81
2022/05/01 00:47:47;;;;;;;;;;;;;;;;;;5075130;28;28559;-81
2022/05/01 00:50:13;;;;;;;;;;;;;;;;;;5075219;28;28296;-81
2022/05/01 00:52:39;;;;;;;;;;;;;;;;;;5074685;28;28344;-81
2022/05/01 00:55:04;;;;;;;;;;;;;;;;;;5078308;28;28239;-81
2022/05/01 00:57:29;;;;;;;;;;;;;;;;;;5078778;28;28575;-81
2022/05/01 00:59:55;;;;;;;;;;;;;;;;;;5078583;28;29532;-81
2022/05/01 01:02:20;;;;;;;;;;;;;;;;;;5078202;28;28227;-81
2022/05/01 01:04:45;;;;;;;;;;;;;;;;;;5078428;28;28312;-81
2022/05/01 01:07:10;;;;;;;;;;;;;;;;;;5078256;28;28279;-81
2022/05/01 01:09:35;;;;;;;;;;;;;;;;;;5078205;28;28426;-81
2022/05/01 01:14:44;;;;;;;;;;;;;;;;;;5078530;28;28237;-81
2022/05/01 01:17:10;;;;;;;;;;;;;;;;;;5077802;28;35145;-80
2022/05/01 01:19:35;;;;;;;;;;;;;;;;;;5077898;28;29203;-80
2022/05/01 01:22:00;;;;;;;;;;;;;;;;;;5078465;28;28292;-80
2022/05/01 01:24:25;;;;;;;;;;;;;;;;;;5078109;28;28531;-80
2022/05/01 01:26:50;;;;;;;;;;;;;;;;;;5078141;28;28493;-81
2022/05/01 01:31:59;;;;;;;;;;;;;;;;;;5077337;28;28404;-80
2022/05/01 01:34:24;;;;;;;;;;;;;;;;;;5077923;28;28322;-80
2022/05/01 01:36:49;;;;;;;;;;;;;;;;;;5077922;28;28367;-81
2022/05/01 01:39:18;;;;;;;;;;;;;;;;;;5077745;28;29344;-80
2022/05/01 01:41:43;;;;;;;;;;;;;;;;;;5077472;28;28652;-80
2022/05/01 01:44:08;;;;;;;;;;;;;;;;;;5077814;28;28458;-80
2022/05/01 01:46:33;;;;;;;;;;;;;;;;;;5077710;28;28307;-80
2022/05/01 01:48:59;;;;;;;;;;;;;;;;;;5077562;28;28374;-80
2022/05/01 01:51:24;;;;;;;;;;;;;;;;;;5077347;28;28430;-80
2022/05/01 01:53:49;;;;;;;;;;;;;;;;;;5077493;28;28376;-80
2022/05/01 01:56:14;;;;;;;;;;;;;;;;;;5077640;28;28379;-80
2022/05/01 01:58:39;;;;;;;;;;;;;;;;;;5077499;28;28414;-80
2022/05/01 02:01:04;;;;;;;;;;;;;;;;;;5077417;28;28484;-80
2022/05/01 02:03:29;;;;;;;;;;;;;;;;;;5076893;28;28511;-79
2022/05/01 02:05:54;;;;;;;;;;;;;;;;;;5077124;28;27855;-80
2022/05/01 02:08:19;;;;;;;;;;;;;;;;;;5076984;28;28508;-80
2022/05/01 02:10:46;;;;;;;;;;;;;;;;;;5077157;28;28509;-80
2022/05/01 02:13:12;;;;;;;;;;;;;;;;;;5077258;28;28383;-80
2022/05/01 02:15:37;;;;;;;;;;;;;;;;;;5076943;28;28546;-80
2022/05/01 02:18:02;;;;;;;;;;;;;;;;;;5077156;28;28455;-80
2022/05/01 02:20:27;;;;;;;;;;;;;;;;;;5076679;28;28352;-80
2022/05/01 02:22:53;;;;;;;;;;;;;;;;;;5077087;28;28760;-80
2022/05/01 02:25:21;;;;;;;;;;;;;;;;;;5076996;28;28261;-80
2022/05/01 02:27:46;;;;;;;;;;;;;;;;;;5076896;28;28470;-80
2022/05/01 02:30:11;;;;;;;;;;;;;;;;;;5076740;28;28369;-80
2022/05/01 02:32:36;;;;;;;;;;;;;;;;;;5077085;28;28444;-80
2022/05/01 02:35:01;;;;;;;;;;;;;;;;;;5076986;28;28351;-80
2022/05/01 02:37:26;;;;;;;;;;;;;;;;;;5076609;28;28379;-80
2022/05/01 02:39:51;;;;;;;;;;;;;;;;;;5077080;28;28446;-80
2022/05/01 02:42:19;;;;;;;;;;;;;;;;;;5077032;28;29530;-80
2022/05/01 02:44:44;;;;;;;;;;;;;;;;;;5077073;28;28389;-80
2022/05/01 02:47:09;;;;;;;;;;;;;;;;;;5076477;28;29188;-80
2022/05/01 02:49:35;;;;;;;;;;;;;;;;;;5076387;28;28425;-80
2022/05/01 02:52:00;;;;;;;;;;;;;;;;;;5076631;28;28389;-80
2022/05/01 02:54:27;;;;;;;;;;;;;;;;;;5077080;28;28553;-80
2022/05/01 02:56:52;;;;;;;;;;;;;;;;;;5076370;28;29078;-80
2022/05/01 02:59:17;;;;;;;;;;;;;;;;;;5076563;28;27868;-80
2022/05/01 03:01:43;;;;;;;;;;;;;;;;;;5076652;28;28245;-80
2022/05/01 03:04:08;;;;;;;;;;;;;;;;;;5076425;28;28340;-80
2022/05/01 03:06:34;;;;;;;;;;;;;;;;;;5076182;28;28399;-80
2022/05/01 03:08:59;;;;;;;;;;;;;;;;;;5076220;28;28450;-80
2022/05/01 03:11:24;;;;;;;;;;;;;;;;;;5076376;28;28374;-80
2022/05/01 03:13:49;;;;;;;;;;;;;;;;;;5076697;28;28249;-80
2022/05/01 03:16:15;;;;;;;;;;;;;;;;;;5074959;28;28928;-80
2022/05/01 03:24:07;;;;;;;;;;;;;;;;;;5076123;28;28419;-80
2022/05/01 03:26:33;;;;;;;;;;;;;;;;;;5076164;28;28802;-80
2022/05/01 03:28:58;;;;;;;;;;;;;;;;;;5075988;28;28285;-80
2022/05/01 03:31:24;;;;;;;;;;;;;;;;;;5076315;28;28395;-80
2022/05/01 03:33:49;;;;;;;;;;;;;;;;;;5076021;28;28522;-80
2022/05/01 03:36:15;;;;;;;;;;;;;;;;;;5075942;28;28329;-80
2022/05/01 03:38:40;;;;;;;;;;;;;;;;;;5075659;28;28312;-80
2022/05/01 03:41:05;;;;;;;;;;;;;;;;;;5076051;28;28400;-80
2022/05/01 03:43:30;;;;;;;;;;;;;;;;;;5076133;28;28336;-80
2022/05/01 03:45:55;;;;;;;;;;;;;;;;;;5072879;28;28396;-80
2022/05/01 03:48:21;;;;;;;;;;;;;;;;;;5074800;28;28364;-80
2022/05/01 03:50:46;;;;;;;;;;;;;;;;;;5075817;28;28518;-80
2022/05/01 03:53:11;;;;;;;;;;;;;;;;;;5075985;28;28337;-80
2022/05/01 03:55:36;;;;;;;;;;;;;;;;;;5075312;28;29470;-80
2022/05/01 03:58:01;;;;;;;;;;;;;;;;;;5075872;28;28467;-80
2022/05/01 04:00:27;;;;;;;;;;;;;;;;;;5075672;28;28450;-80
2022/05/01 04:02:52;;;;;;;;;;;;;;;;;;5075827;28;28238;-81
2022/05/01 04:05:17;;;;;;;;;;;;;;;;;;5075264;28;29261;-82
2022/05/01 04:07:43;;;;;;;;;;;;;;;;;;5075508;28;28424;-80
2022/05/01 04:10:08;;;;;;;;;;;;;;;;;;5075498;28;28325;-79
2022/05/01 04:12:33;;;;;;;;;;;;;;;;;;5075605;28;28322;-79
2022/05/01 04:14:59;;;;;;;;;;;;;;;;;;5075463;28;28316;-79
2022/05/01 04:17:24;;;;;;;;;;;;;;;;;;5074213;28;28486;-80
2022/05/01 04:19:49;;;;;;;;;;;;;;;;;;5075253;28;28419;-79
2022/05/01 04:22:14;;;;;;;;;;;;;;;;;;5075590;28;28363;-79
2022/05/01 04:24:39;;;;;;;;;;;;;;;;;;5074901;28;28569;-79
2022/05/01 04:27:06;;;;;;;;;;;;;;;;;;5075346;28;28362;-79
2022/05/01 04:29:38;;;;;;;;;;;;;;;;;;5074227;28;28236;-80
2022/05/01 04:32:05;;;;;;;;;;;;;;;;;;5075443;28;28378;-80
2022/05/01 04:34:30;;;;;;;;;;;;;;;;;;5074706;28;29342;-79
2022/05/01 04:36:55;;;;;;;;;;;;;;;;;;5071984;28;28487;-79
2022/05/01 04:39:20;;;;;;;;;;;;;;;;;;5060474;28;28490;-79
2022/05/01 04:41:45;;;;;;;;;;;;;;;;;;5060747;28;28365;-79
2022/05/01 04:44:11;;;;;;;;;;;;;;;;;;5073174;28;29462;-79
2022/05/01 04:46:36;;;;;;;;;;;;;;;;;;5074990;28;28892;-79
2022/05/01 04:49:02;;;;;;;;;;;;;;;;;;5074552;28;28372;-79
2022/05/01 04:51:27;;;;;;;;;;;;;;;;;;5074905;28;28509;-79
2022/05/01 04:53:52;;;;;;;;;;;;;;;;;;5074420;28;28356;-79
2022/05/01 04:59:01;;;;;;;;;;;;;;;;;;5074996;28;28308;-79
2022/05/01 05:01:26;;;;;;;;;;;;;;;;;;5074389;28;28789;-79
2022/05/01 05:03:51;;;;;;;;;;;;;;;;;;5074745;28;28389;-80
2022/05/01 05:06:16;;;;;;;;;;;;;;;;;;5074632;28;28321;-80
2022/05/01 05:11:25;;;;;;;;;;;;;;;;;;5074357;28;28507;-80
2022/05/01 05:13:52;;;;;;;;;;;;;;;;;;5074713;28;28431;-80
2022/05/01 05:16:17;;;;;;;;;;;;;;;;;;5074489;28;28345;-80
2022/05/01 05:18:42;;;;;;;;;;;;;;;;;;5074586;28;28303;-80
2022/05/01 05:21:07;;;;;;;;;;;;;;;;;;5074567;28;28285;-80
2022/05/01 05:23:32;;;;;;;;;;;;;;;;;;5074001;28;28844;-80
2022/05/01 05:25:57;;;;;;;;;;;;;;;;;;5074206;28;28366;-80
2022/05/01 05:28:23;;;;;;;;;;;;;;;;;;5074398;28;28380;-80
2022/05/01 05:30:48;;;;;;;;;;;;;;;;;;5074194;28;28456;-80
2022/05/01 05:33:13;;;;;;;;;;;;;;;;;;5073973;28;28430;-80
2022/05/01 05:35:39;;;;;;;;;;;;;;;;;;5073987;28;28372;-80
2022/05/01 05:38:04;;;;;;;;;;;;;;;;;;5074604;28;28376;-80
2022/05/01 05:40:29;;;;;;;;;;;;;;;;;;5076509;28;28252;-81
2022/05/01 05:42:54;;;;;;;;;;;;;;;;;;5077789;28;29221;-81
2022/05/01 05:45:19;;;;;;;;;;;;;;;;;;5076999;28;28551;-81
2022/05/01 05:47:44;;;;;;;;;;;;;;;;;;5077709;28;28451;-81
2022/05/01 05:50:09;;;;;;;;;;;;;;;;;;5077397;28;28225;-81
2022/05/01 05:52:34;;;;;;;;;;;;;;;;;;5077537;28;28337;-81
2022/05/01 05:54:59;;;;;;;;;;;;;;;;;;5059113;28;28256;-81
2022/05/01 05:57:25;;;;;;;;;;;;;;;;;;5077028;28;28344;-81
2022/05/01 05:59:50;;;;;;;;;;;;;;;;;;5077199;28;28226;-81
2022/05/01 06:02:15;;;;;;;;;;;;;;;;;;5076582;28;28457;-82
2022/05/01 06:04:41;;;;;;;;;;;;;;;;;;5076774;28;28264;-81
2022/05/01 06:07:06;;;;;;;;;;;;;;;;;;5076424;28;28397;-81
2022/05/01 06:09:32;;;;;;;;;;;;;;;;;;5077469;28;28392;-81
2022/05/01 06:11:57;;;;;;;;;;;;;;;;;;5076914;28;29613;-81
2022/05/01 06:14:23;;;;;;;;;;;;;;;;;;5077291;28;28529;-81
2022/05/01 06:16:48;;;;;;;;;;;;;;;;;;5055442;28;28350;-81
2022/05/01 06:19:15;;;;;;;;;;;;;;;;;;5057045;28;28397;-81
2022/05/01 06:21:40;;;;;;;;;;;;;;;;;;5056738;28;28608;-81
2022/05/01 06:24:05;;;;;;;;;;;;;;;;;;5056980;28;28378;-81
2022/05/01 06:26:30;;;;;;;;;;;;;;;;;;5057124;28;28521;-82
2022/05/01 06:28:55;;;;;;;;;;;;;;;;;;5056472;28;28614;-82
2022/05/01 06:31:20;;;;;;;;;;;;;;;;;;5056779;28;29310;-80
2022/05/01 06:33:45;;;;;;;;;;;;;;;;;;5056524;28;28466;-80
2022/05/01 06:36:10;;;;;;;;;;;;;;;;;;5056532;28;28249;-80
2022/05/01 06:38:36;;;;;;;;;;;;;;;;;;5056538;28;28497;-80
2022/05/01 06:41:01;;;;;;;;;;;;;;;;;;5056424;28;28347;-80
2022/05/01 06:43:27;;;;;;;;;;;;;;;;;;5056942;28;28320;-80
2022/05/01 06:45:52;;;;;;;;;;;;;;;;;;5057784;28;28256;-80
2022/05/01 06:48:17;;;;;;;;;;;;;;;;;;5056317;28;28481;-80
2022/05/01 06:50:42;;;;;;;;;;;;;;;;;;5055684;28;28449;-81
2022/05/01 06:53:07;;;;;;;;;;;;;;;;;;5055985;28;28253;-80
2022/05/01 06:55:33;;;;;;;;;;;;;;;;;;5056670;28;28224;-84
2022/05/01 06:57:58;;;;;;;;;;;;;;;;;;5056161;28;28383;-82
2022/05/01 07:00:23;;;;;;;;;;;;;;;;;;5055577;28;28534;-83
2022/05/01 07:02:48;;;;;;;;;;;;;;;;;;5056063;28;28249;-83
2022/05/01 07:05:13;;;;;;;;;;;;;;;;;;5056182;28;28696;-83
2022/05/01 07:07:39;;;;;;;;;;;;;;;;;;5056262;28;28518;-82
2022/05/01 07:10:04;;;;;;;;;;;;;;;;;;5055862;28;29514;-85
2022/05/01 07:12:29;;;;;;;;;;;;;;;;;;5055913;28;28272;-86
2022/05/01 07:14:54;;;;;;;;;;;;;;;;;;5056260;28;28300;-89
2022/05/01 07:17:19;;;;;;;;;;;;;;;;;;5054290;28;28305;-88
2022/05/01 07:19:44;;;;;;;;;;;;;;;;;;5055535;28;28436;-88
2022/05/01 07:22:09;;;;;;;;;;;;;;;;;;5055636;28;28335;-91
2022/05/01 07:24:34;;;;;;;;;;;;;;;;;;5054547;28;28685;-85
2022/05/01 07:27:00;;;;;;;;;;;;;;;;;;5056156;28;28315;-84
2022/05/01 07:29:25;;;;;;;;;;;;;;;;;;5055332;28;28405;-87
2022/05/01 07:31:50;;;;;;;;;;;;;;;;;;5056304;28;28640;-86
2022/05/01 07:34:15;;;;;;;;;;;;;;;;;;5055494;28;28548;-85
2022/05/01 07:36:41;;;;;;;;;;;;;;;;;;5055785;28;28445;-85
2022/05/01 07:39:06;;;;;;;;;;;;;;;;;;5055536;28;29343;-84
2022/05/01 07:41:33;;;;;;;;;;;;;;;;;;5056152;28;28406;-82
2022/05/01 07:43:58;;;;;;;;;;;;;;;;;;5054981;28;28503;-83
2022/05/01 07:46:23;;;;;;;;;;;;;;;;;;5055088;28;28644;-84
2022/05/01 07:48:48;;;;;;;;;;;;;;;;;;5054224;28;30299;-83
2022/05/01 07:51:13;;;;;;;;;;;;;;;;;;5054900;28;28430;-85
2022/05/01 07:53:39;;;;;;;;;;;;;;;;;;5055332;28;28298;-87
2022/05/01 07:56:04;;;;;;;;;;;;;;;;;;5055882;28;28505;-85
2022/05/01 07:58:29;;;;;;;;;;;;;;;;;;5054993;28;28390;-87
2022/05/01 08:00:54;;;;;;;;;;;;;;;;;;5055840;28;28506;-84
2022/05/01 08:06:03;;;;;;;;;;;;;;;;;;5055393;28;28406;-86
2022/05/01 08:08:33;;;;;;;;;;;;;;;;;;5054821;28;28446;-85
2022/05/01 08:10:58;;;;;;;;;;;;;;;;;;5056295;28;28264;-85
2022/05/01 08:13:23;;;;;;;;;;;;;;;;;;5055149;28;28331;-85
2022/05/01 08:15:48;;;;;;;;;;;;;;;;;;5059242;28;28322;-91
2022/05/01 08:21:09;;;;;;;;;;;;;;;;;;5074892;28;28588;-87
2022/05/01 08:23:34;;;;;;;;;;;;;;;;;;5074032;28;27814;-87
2022/05/01 08:26:06;;;;;;;;;;;;;;;;;;5075043;28;28413;-90
2022/05/01 08:28:31;;;;;;;;;;;;;;;;;;5075235;28;28488;-89
2022/05/01 08:30:56;;;;;;;;;;;;;;;;;;5079799;28;28469;-90
2022/05/01 08:33:21;;;;;;;;;;;;;;;;;;5046503;28;28350;-91
2022/05/01 08:35:46;;;;;;;;;;;;;;;;;;5074581;28;28467;-90
2022/05/01 08:38:12;;;;;;;;;;;;;;;;;;5075377;28;28327;-93
2022/05/01 08:40:37;;;;;;;;;;;;;;;;;;5075310;28;28248;-89
2022/05/01 08:43:02;;;;;;;;;;;;;;;;;;5078246;28;28520;-88
2022/05/01 08:45:27;;;;;;;;;;;;;;;;;;5079235;28;27914;-92
2022/05/01 08:47:54;;;;;;;;;;;;;;;;;;5062178;28;28601;-96
2022/05/01 08:50:20;;;;;;;;;;;;;;;;;;5055801;28;28498;-89
2022/05/01 08:52:45;;;;;;;;;;;;;;;;;;5081146;28;28272;-92
2022/05/01 08:55:10;;;;;;;;;;;;;;;;;;5065061;28;28733;-94
2022/05/01 08:57:35;;;;;;;;;;;;;;;;;;5168800;22;29860;-95
2022/05/01 09:00:01;;;;;;;;;;;;;;;;;;5063415;28;28220;-94
2022/05/01 09:02:26;;;;;;;;;;;;;;;;;;5038839;28;28384;-92
2022/05/01 09:04:51;;;;;;;;;;;;;;;;;;5055152;28;27954;-88
2022/05/01 09:07:16;;;;;;;;;;;;;;;;;;5058723;28;28136;-89
2022/05/01 09:09:41;;;;;;;;;;;;;;;;;;5055415;28;28412;-89
2022/05/01 09:14:50;;;;;;;;;;;;;;;;;;5056942;28;27813;-88
2022/05/01 09:17:19;;;;;;;;;;;;;;;;;;5057226;28;29555;-91
2022/05/01 09:19:44;;;;;;;;;;;;;;;;;;5040742;28;27818;-87
2022/05/01 09:22:09;;;;;;;;;;;;;;;;;;5039932;28;28731;-87
2022/05/01 09:24:34;;;;;;;;;;;;;;;;;;5056776;28;28432;-87
2022/05/01 09:26:59;;;;;;;;;;;;;;;;;;5057167;28;28517;-88
2022/05/01 09:29:25;;;;;;;;;;;;;;;;;;5057426;28;28394;-88
2022/05/01 09:31:50;;;;;;;;;;;;;;;;;;5057139;28;28407;-88
2022/05/01 09:34:16;;;;;;;;;;;;;;;;;;5077265;28;28296;-85
2022/05/01 09:36:41;;;;;;;;;;;;;;;;;;5066737;28;28474;-89
2022/05/01 09:39:06;;;;;;;;;;;;;;;;;;5056603;28;28608;-83
2022/05/01 09:41:31;;;;;;;;;;;;;;;;;;5057569;28;28415;-82
2022/05/01 09:43:56;;;;;;;;;;;;;;;;;;5057728;28;28458;-87
2022/05/01 09:46:21;;;;;;;;;;;;;;;;;;5057704;28;28617;-83
2022/05/01 09:48:46;;;;;;;;;;;;;;;;;;5057246;28;28373;-85
2022/05/01 09:51:11;;;;;;;;;;;;;;;;;;5057186;28;28431;-84
2022/05/01 09:53:36;;;;;;;;;;;;;;;;;;5057638;28;28545;-82
2022/05/01 09:56:02;;;;;;;;;;;;;;;;;;5056969;28;29051;-84
2022/05/01 09:58:27;;;;;;;;;;;;;;;;;;5056602;28;28407;-84
2022/05/01 10:00:52;;;;;;;;;;;;;;;;;;5056852;28;28503;-84
2022/05/01 10:03:18;;;;;;;;;;;;;;;;;;5056642;28;28380;-83
2022/05/01 10:05:43;;;;;;;;;;;;;;;;;;5056437;28;33615;-87
2022/05/01 10:08:08;;;;;;;;;;;;;;;;;;5051893;28;28392;-84
2022/05/01 10:10:34;;;;;;;;;;;;;;;;;;5055344;28;28458;-86
2022/05/01 10:13:00;;;;;;;;;;;;;;;;;;5065715;28;28341;-87
2022/05/01 10:15:25;;;;;;;;;;;;;;;;;;5055730;28;28751;-89
2022/05/01 10:17:50;;;;;;;;;;;;;;;;;;5056542;28;28433;-88
2022/05/01 10:20:15;;;;;;;;;;;;;;;;;;5054844;28;28463;-86
2022/05/01 10:22:40;;;;;;;;;;;;;;;;;;5038001;28;28500;-86
2022/05/01 10:25:08;;;;;;;;;;;;;;;;;;5052555;28;28582;-89
2022/05/01 10:27:33;;;;;;;;;;;;;;;;;;5045878;28;28462;-85
2022/05/01 10:32:42;;;;;;;;;;;;;;;;;;5055975;28;28384;-83
2022/05/01 10:35:07;;;;;;;;;;;;;;;;;;5073935;28;28463;-84
2022/05/01 10:37:32;;;;;;;;;;;;;;;;;;5063830;28;28438;-85
2022/05/01 10:39:57;;;;;;;;;;;;;;;;;;5056071;28;28515;-85
2022/05/01 10:42:23;;;;;;;;;;;;;;;;;;5056255;28;28479;-88
2022/05/01 10:44:48;;;;;;;;;;;;;;;;;;5055900;28;28993;-86
2022/05/01 10:47:13;;;;;;;;;;;;;;;;;;5055167;28;28397;-87
2022/05/01 10:49:38;;;;;;;;;;;;;;;;;;5050912;28;28542;-86
2022/05/01 10:52:03;;;;;;;;;;;;;;;;;;5053262;28;28487;-90
2022/05/01 10:54:29;;;;;;;;;;;;;;;;;;5047213;28;28503;-86
2022/05/01 10:56:54;;;;;;;;;;;;;;;;;;5054929;28;28497;-93
2022/05/01 10:59:19;;;;;;;;;;;;;;;;;;5038060;28;28375;-90
2022/05/01 11:01:46;;;;;;;;;;;;;;;;;;5056605;28;28446;-91
2022/05/01 11:04:11;;;;;;;;;;;;;;;;;;5056170;28;28949;-84
2022/05/01 11:06:36;;;;;;;;;;;;;;;;;;5057125;28;28526;-94
2022/05/01 11:09:01;;;;;;;;;;;;;;;;;;5056139;28;28440;-88
2022/05/01 11:11:26;;;;;;;;;;;;;;;;;;5054762;28;28704;-87
2022/05/01 11:13:53;;;;;;;;;;;;;;;;;;5056617;28;28555;-94
2022/05/01 11:16:18;;;;;;;;;;;;;;;;;;5056346;28;28472;-90
2022/05/01 11:18:43;;;;;;;;;;;;;;;;;;5056230;28;28317;-88
2022/05/01 11:21:08;;;;;;;;;;;;;;;;;;5055462;28;28440;-85
2022/05/01 11:23:33;;;;;;;;;;;;;;;;;;5075559;28;28360;-87
2022/05/01 11:25:58;;;;;;;;;;;;;;;;;;5079850;28;28372;-94
2022/05/01 11:28:24;;;;;;;;;;;;;;;;;;5078814;28;28309;-88
2022/05/01 11:30:49;;;;;;;;;;;;;;;;;;5056929;28;28528;-87
2022/05/01 11:33:16;;;;;;;;;;;;;;;;;;5039103;28;29896;-86
2022/05/01 11:35:41;;;;;;;;;;;;;;;;;;5058223;28;28250;-87
2022/05/01 11:38:08;;;;;;;;;;;;;;;;;;5059999;28;28295;-90
2022/05/01 11:40:33;;;;;;;;;;;;;;;;;;5042119;28;28384;-93
2022/05/01 11:43:01;;;;;;;;;;;;;;;;;;5059674;28;29825;-94
2022/05/01 11:45:26;;;;;;;;;;;;;;;;;;5043407;28;28508;-92
2022/05/01 11:47:51;;;;;;;;;;;;;;;;;;5058383;28;28451;-84
2022/05/01 11:50:17;;;;;;;;;;;;;;;;;;5057356;28;28392;-88
2022/05/01 11:52:42;;;;;;;;;;;;;;;;;;5056856;28;28509;-90
2022/05/01 11:55:08;;;;;;;;;;;;;;;;;;5057297;28;28442;-88
2022/05/01 12:03:01;;;;;;;;;;;;;;;;;;5055869;28;28727;-85
2022/05/01 12:05:26;;;;;;;;;;;;;;;;;;5056811;28;28439;-86
2022/05/01 12:07:51;;;;;;;;;;;;;;;;;;5056855;28;28387;-85
2022/05/01 12:10:16;;;;;;;;;;;;;;;;;;5056890;28;28344;-84
2022/05/01 12:12:41;;;;;;;;;;;;;;;;;;5055994;28;28720;-84
2022/05/01 12:15:07;;;;;;;;;;;;;;;;;;5056153;28;28813;-83
2022/05/01 12:17:32;;;;;;;;;;;;;;;;;;5056587;28;28471;-84
2022/05/01 12:19:58;;;;;;;;;;;;;;;;;;5055730;28;28398;-83
2022/05/01 12:22:23;;;;;;;;;;;;;;;;;;5055979;28;28463;-83
2022/05/01 12:24:48;;;;;;;;;;;;;;;;;;5055784;28;28392;-86
2022/05/01 12:27:14;;;;;;;;;;;;;;;;;;5055585;28;28426;-84
2022/05/01 12:29:42;;;;;;;;;;;;;;;;;;5059835;28;28546;-85
2022/05/01 12:32:07;;;;;;;;;;;;;;;;;;5060886;28;28485;-85
2022/05/01 12:34:33;;;;;;;;;;;;;;;;;;5052220;28;28539;-84
2022/05/01 12:36:58;;;;;;;;;;;;;;;;;;5054478;28;28518;-84
2022/05/01 12:39:23;;;;;;;;;;;;;;;;;;5054755;28;27843;-85
2022/05/01 12:44:32;;;;;;;;;;;;;;;;;;5054209;28;28376;-85
2022/05/01 12:46:57;;;;;;;;;;;;;;;;;;5053817;28;28570;-84
2022/05/01 12:49:22;;;;;;;;;;;;;;;;;;5054613;28;28372;-84
2022/05/01 12:51:47;;;;;;;;;;;;;;;;;;5056761;28;28825;-88
2022/05/01 12:54:19;;;;;;;;;;;;;;;;;;5041872;28;28347;-86
2022/05/01 12:56:47;;;;;;;;;;;;;;;;;;5062113;28;28533;-86
2022/05/01 12:59:13;;;;;;;;;;;;;;;;;;5059422;28;28534;-86
2022/05/01 13:01:39;;;;;;;;;;;;;;;;;;5041018;28;28498;-86
2022/05/01 13:04:04;;;;;;;;;;;;;;;;;;5059001;28;28561;-86
2022/05/01 13:06:29;;;;;;;;;;;;;;;;;;5059161;28;28396;-83
2022/05/01 13:08:58;;;;;;;;;;;;;;;;;;5059972;28;28603;-84
2022/05/01 13:11:23;;;;;;;;;;;;;;;;;;5057626;28;28534;-84
2022/05/01 13:13:48;;;;;;;;;;;;;;;;;;5058367;28;27835;-83
2022/05/01 13:16:14;;;;;;;;;;;;;;;;;;5036832;28;28654;-83
2022/05/01 13:18:39;;;;;;;;;;;;;;;;;;5058228;28;28450;-81
2022/05/01 13:21:04;;;;;;;;;;;;;;;;;;5057278;28;28534;-85
2022/05/01 13:23:29;;;;;;;;;;;;;;;;;;5040306;28;28462;-84
2022/05/01 13:25:55;;;;;;;;;;;;;;;;;;5059096;28;28475;-84
2022/05/01 13:28:20;;;;;;;;;;;;;;;;;;5058924;28;28278;-82
2022/05/01 13:30:46;;;;;;;;;;;;;;;;;;5058166;28;28463;-84
2022/05/01 13:33:11;;;;;;;;;;;;;;;;;;5058599;28;28414;-82
2022/05/01 13:35:36;;;;;;;;;;;;;;;;;;5057043;28;28336;-84
2022/05/01 13:38:01;;;;;;;;;;;;;;;;;;5058153;28;28680;-85
2022/05/01 13:45:54;;;;;;;;;;;;;;;;;;5059623;28;28391;-83
2022/05/01 13:48:19;;;;;;;;;;;;;;;;;;5058468;28;28342;-84
2022/05/01 13:50:44;;;;;;;;;;;;;;;;;;5057335;28;28771;-85
2022/05/01 13:53:13;;;;;;;;;;;;;;;;;;5057036;28;28536;-83
2022/05/01 13:55:38;;;;;;;;;;;;;;;;;;5058407;28;28563;-84
2022/05/01 13:58:03;;;;;;;;;;;;;;;;;;5064356;28;28464;-84
2022/05/01 14:00:28;;;;;;;;;;;;;;;;;;5057735;28;28481;-86
2022/05/01 14:02:53;;;;;;;;;;;;;;;;;;5065786;28;28341;-87
2022/05/01 14:05:18;;;;;;;;;;;;;;;;;;5041486;28;28380;-86
2022/05/01 14:07:43;;;;;;;;;;;;;;;;;;5063740;28;35703;-88
2022/05/01 14:10:09;;;;;;;;;;;;;;;;;;5059559;28;28547;-87
2022/05/01 14:12:34;;;;;;;;;;;;;;;;;;5043618;28;28477;-90
2022/05/01 14:14:59;;;;;;;;;;;;;;;;;;5058894;28;28474;-88
2022/05/01 14:17:24;;;;;;;;;;;;;;;;;;5058446;28;28754;-86
2022/05/01 14:19:49;;;;;;;;;;;;;;;;;;5037747;28;29481;-86
2022/05/01 14:22:14;;;;;;;;;;;;;;;;;;5024107;28;28653;-83
2022/05/01 14:24:39;;;;;;;;;;;;;;;;;;5057342;28;28534;-81
2022/05/01 14:27:04;;;;;;;;;;;;;;;;;;5058223;28;29045;-80
2022/05/01 14:29:30;;;;;;;;;;;;;;;;;;5057151;28;28516;-80
2022/05/01 14:31:55;;;;;;;;;;;;;;;;;;5057495;28;28577;-86
2022/05/01 14:34:20;;;;;;;;;;;;;;;;;;5057811;28;28414;-82
2022/05/01 14:36:45;;;;;;;;;;;;;;;;;;5058438;28;28495;-82
2022/05/01 14:39:10;;;;;;;;;;;;;;;;;;5057106;28;28483;-81
2022/05/01 14:41:35;;;;;;;;;;;;;;;;;;5057009;28;28769;-80
2022/05/01 14:44:02;;;;;;;;;;;;;;;;;;5056645;28;29036;-82
2022/05/01 14:46:27;;;;;;;;;;;;;;;;;;5056724;28;28596;-82
2022/05/01 14:48:52;;;;;;;;;;;;;;;;;;5056515;28;28471;-83
2022/05/01 14:51:17;;;;;;;;;;;;;;;;;;5053254;28;29722;-81
2022/05/01 14:53:43;;;;;;;;;;;;;;;;;;5055067;28;28582;-85
2022/05/01 14:56:08;;;;;;;;;;;;;;;;;;5057156;28;28479;-87
2022/05/01 15:06:45;;;;;;;;;;;;;;;;;;5034623;28;27951;-84
2022/05/01 15:09:10;;;;;;;;;;;;;;;;;;5033603;28;28633;-84
2022/05/01 15:11:38;;;;;;;;;;;;;;;;;;5033788;28;28494;-85
2022/05/01 15:14:03;;;;;;;;;;;;;;;;;;5033812;28;28472;-84
2022/05/01 15:16:28;;;;;;;;;;;;;;;;;;5041174;28;28448;-83
2022/05/01 15:18:54;;;;;;;;;;;;;;;;;;5053440;28;28580;-82
2022/05/01 15:21:19;;;;;;;;;;;;;;;;;;5053745;28;28589;-85
2022/05/01 15:23:44;;;;;;;;;;;;;;;;;;5054764;28;28510;-83
2022/05/01 15:26:09;;;;;;;;;;;;;;;;;;5074698;28;28536;-88
2022/05/01 15:28:35;;;;;;;;;;;;;;;;;;5072592;28;29493;-89
2022/05/01 15:31:00;;;;;;;;;;;;;;;;;;5053712;28;28556;-91
2022/05/01 15:35:53;;;;;;;;;;;;;;;;;;5062453;28;28643;-86
2022/05/01 15:38:18;;;;;;;;;;;;;;;;;;5055407;28;29127;-92
2022/05/01 15:40:44;;;;;;;;;;;;;;;;;;5053747;28;28167;-89
2022/05/01 15:43:09;;;;;;;;;;;;;;;;;;5031404;28;28425;-89
2022/05/01 15:45:49;;;;;;;;;;;;;;;;;;5023687;28;28463;-85
2022/05/01 15:48:14;;;;;;;;;;;;;;;;;;5053608;28;28578;-89
2022/05/01 15:53:39;;;;;;;;;;;;;;;;;;5057204;28;28581;-89
2022/05/01 15:56:04;;;;;;;;;;;;;;;;;;5053239;28;28606;-90
2022/05/01 15:58:29;;;;;;;;;;;;;;;;;;5072891;28;28586;-90
2022/05/01 16:00:54;;;;;;;;;;;;;;;;;;5073558;28;28424;-88
2022/05/01 16:03:20;;;;;;;;;;;;;;;;;;5069554;28;28671;-89
2022/05/01 16:05:45;;;;;;;;;;;;;;;;;;5054973;28;28524;-94
2022/05/01 16:08:10;;;;;;;;;;;;;;;;;;5043459;28;29889;-96
2022/05/01 16:10:38;;;;;;;;;;;;;;;;;;5055605;28;28469;-92
2022/05/01 16:13:04;;;;;;;;;;;;;;;;;;5058245;28;28332;-90
2022/05/01 16:15:30;;;;;;;;;;;;;;;;;;5039588;28;28649;-89
2022/05/01 16:17:55;;;;;;;;;;;;;;;;;;5055611;28;29782;-91
2022/05/01 16:20:21;;;;;;;;;;;;;;;;;;5037499;28;28697;-92
2022/05/01 16:22:49;;;;;;;;;;;;;;;;;;5056888;28;28309;-90
2022/05/01 16:25:14;;;;;;;;;;;;;;;;;;5035812;28;28602;-91
2022/05/01 16:27:39;;;;;;;;;;;;;;;;;;5052924;28;28388;-84
2022/05/01 16:30:06;;;;;;;;;;;;;;;;;;5052891;28;28521;-91
2022/05/01 16:32:31;;;;;;;;;;;;;;;;;;5053209;28;28500;-88
2022/05/01 16:34:56;;;;;;;;;;;;;;;;;;5035244;28;28668;-88
2022/05/01 16:37:21;;;;;;;;;;;;;;;;;;5052945;28;29000;-83
2022/05/01 16:39:46;;;;;;;;;;;;;;;;;;5053033;28;28410;-87
2022/05/01 16:42:17;;;;;;;;;;;;;;;;;;5034544;28;28515;-89
2022/05/01 16:44:43;;;;;;;;;;;;;;;;;;5055157;28;28614;-87
2022/05/01 16:47:08;;;;;;;;;;;;;;;;;;5050583;28;28582;-91
2022/05/01 16:49:33;;;;;;;;;;;;;;;;;;5026922;28;28445;-91
2022/05/01 16:51:58;;;;;;;;;;;;;;;;;;5054658;28;28518;-93
2022/05/01 16:54:23;;;;;;;;;;;;;;;;;;5028713;28;28444;-87
2022/05/01 16:56:49;;;;;;;;;;;;;;;;;;5054704;28;29748;-90
2022/05/01 16:59:14;;;;;;;;;;;;;;;;;;5055239;28;28626;-91
2022/05/01 17:01:39;;;;;;;;;;;;;;;;;;5036948;28;28591;-95
2022/05/01 17:04:04;;;;;;;;;;;;;;;;;;5055825;28;28303;-94
2022/05/01 17:06:30;;;;;;;;;;;;;;;;;;5035326;28;29088;-94
2022/05/01 17:08:55;;;;;;;;;;;;;;;;;;5020298;28;28576;-90
2022/05/01 17:11:20;;;;;;;;;;;;;;;;;;5052983;28;28552;-88
2022/05/01 17:13:45;;;;;;;;;;;;;;;;;;5054492;28;28451;-95
2022/05/01 17:16:14;;;;;;;;;;;;;;;;;;5049472;28;28517;-93
2022/05/01 17:18:39;;;;;;;;;;;;;;;;;;5058213;28;28458;-90
2022/05/01 17:21:10;;;;;;;;;;;;;;;;;;5057783;28;28390;-90
2022/05/01 17:23:36;;;;;;;;;;;;;;;;;;5054799;28;27895;-86
2022/05/01 17:26:01;;;;;;;;;;;;;;;;;;5056010;28;28700;-88
2022/05/01 17:28:26;;;;;;;;;;;;;;;;;;5054881;28;28371;-90
2022/05/01 17:30:55;;;;;;;;;;;;;;;;;;5041036;28;28440;-93
2022/05/01 17:33:21;;;;;;;;;;;;;;;;;;5043802;28;28439;-90